sensor_id;sensor_type;location;lat;lon;timestamp;P1;durP1;ratioP1;P2;durP2;ratioP2
8151;SDS011;4117;53.622;9.958;2024-01-06T00:00:14;5.77;;;4.17;;
8151;SDS011;4117;53.622;9.958;2024-01-06T00:02:41;4.80;;;3.70;;
8151;SDS011;4117;53.622;9.958;2024-01-06T00:05:08;4.83;;;3.93;;
8151;SDS011;4117;53.622;9.958;2024-01-06T00:07:35;5.03;;;4.10;;
8151;SDS011;4117;53.622;9.958;2024-01-06T00:10:03;4.37;;;3.97;;
8151;SDS011;4117;53.622;9.958;2024-01-06T00:12:30;8.00;;;4.70;;
8151;SDS011;4117;53.622;9.958;2024-01-06T00:14:57;5.50;;;4.53;;
8151;SDS011;4117;53.622;9.958;2024-01-06T00:17:25;4.83;;;4.33;;
8151;SDS011;4117;53.622;9.958;2024-01-06T00:19:52;5.37;;;4.30;;
8151;SDS011;4117;53.622;9.958;2024-01-06T00:22:20;5.87;;;4.17;;
8151;SDS011;4117;53.622;9.958;2024-01-06T00:24:47;5.60;;;4.23;;
8151;SDS011;4117;53.622;9.958;2024-01-06T00:27:14;4.97;;;3.87;;
8151;SDS011;4117;53.622;9.958;2024-01-06T00:29:41;4.63;;;4.07;;
8151;SDS011;4117;53.622;9.958;2024-01-06T00:32:08;5.13;;;4.40;;
8151;SDS011;4117;53.622;9.958;2024-01-06T00:34:36;4.77;;;4.10;;
8151;SDS011;4117;53.622;9.958;2024-01-06T00:37:03;6.30;;;4.40;;
8151;SDS011;4117;53.622;9.958;2024-01-06T00:39:30;5.33;;;4.57;;
8151;SDS011;4117;53.622;9.958;2024-01-06T00:41:57;5.70;;;4.60;;
8151;SDS011;4117;53.622;9.958;2024-01-06T00:44:24;4.83;;;4.20;;
8151;SDS011;4117;53.622;9.958;2024-01-06T00:46:51;5.17;;;4.33;;
8151;SDS011;4117;53.622;9.958;2024-01-06T00:49:18;5.07;;;4.17;;
8151;SDS011;4117;53.622;9.958;2024-01-06T00:51:46;6.07;;;4.17;;
8151;SDS011;4117;53.622;9.958;2024-01-06T00:54:13;4.90;;;4.37;;
8151;SDS011;4117;53.622;9.958;2024-01-06T00:56:40;4.87;;;4.37;;
8151;SDS011;4117;53.622;9.958;2024-01-06T00:59:08;5.63;;;4.60;;
8151;SDS011;4117;53.622;9.958;2024-01-06T01:01:35;5.60;;;4.60;;
8151;SDS011;4117;53.622;9.958;2024-01-06T01:04:02;5.30;;;4.17;;
8151;SDS011;4117;53.622;9.958;2024-01-06T01:06:30;5.13;;;4.40;;
8151;SDS011;4117;53.622;9.958;2024-01-06T01:08:58;5.20;;;4.50;;
8151;SDS011;4117;53.622;9.958;2024-01-06T01:11:25;5.50;;;4.57;;
8151;SDS011;4117;53.622;9.958;2024-01-06T01:13:52;5.03;;;4.53;;
8151;SDS011;4117;53.622;9.958;2024-01-06T01:16:19;6.57;;;4.57;;
8151;SDS011;4117;53.622;9.958;2024-01-06T01:18:46;5.80;;;4.37;;
8151;SDS011;4117;53.622;9.958;2024-01-06T01:21:13;5.83;;;4.27;;
8151;SDS011;4117;53.622;9.958;2024-01-06T01:23:41;5.00;;;4.30;;
8151;SDS011;4117;53.622;9.958;2024-01-06T01:26:09;4.90;;;4.30;;
8151;SDS011;4117;53.622;9.958;2024-01-06T01:28:36;5.70;;;4.30;;
8151;SDS011;4117;53.622;9.958;2024-01-06T01:31:03;4.90;;;4.40;;
8151;SDS011;4117;53.622;9.958;2024-01-06T01:33:30;5.20;;;4.30;;
8151;SDS011;4117;53.622;9.958;2024-01-06T01:35:57;5.30;;;4.30;;
8151;SDS011;4117;53.622;9.958;2024-01-06T01:38:24;5.30;;;4.70;;
8151;SDS011;4117;53.622;9.958;2024-01-06T01:40:51;6.03;;;4.90;;
8151;SDS011;4117;53.622;9.958;2024-01-06T01:43:19;5.00;;;4.47;;
8151;SDS011;4117;53.622;9.958;2024-01-06T01:45:48;6.33;;;4.90;;
8151;SDS011;4117;53.622;9.958;2024-01-06T01:48:17;6.93;;;4.87;;
8151;SDS011;4117;53.622;9.958;2024-01-06T01:50:45;5.57;;;4.70;;
8151;SDS011;4117;53.622;9.958;2024-01-06T01:53:12;5.20;;;4.47;;
8151;SDS011;4117;53.622;9.958;2024-01-06T01:55:40;6.93;;;5.20;;
8151;SDS011;4117;53.622;9.958;2024-01-06T01:58:08;5.40;;;4.77;;
8151;SDS011;4117;53.622;9.958;2024-01-06T02:00:37;6.03;;;5.13;;
8151;SDS011;4117;53.622;9.958;2024-01-06T02:03:04;5.43;;;4.73;;
8151;SDS011;4117;53.622;9.958;2024-01-06T02:05:32;5.77;;;4.77;;
8151;SDS011;4117;53.622;9.958;2024-01-06T02:07:59;5.87;;;4.50;;
8151;SDS011;4117;53.622;9.958;2024-01-06T02:10:26;5.63;;;4.60;;
8151;SDS011;4117;53.622;9.958;2024-01-06T02:12:54;6.43;;;5.10;;
8151;SDS011;4117;53.622;9.958;2024-01-06T02:15:21;7.10;;;5.00;;
8151;SDS011;4117;53.622;9.958;2024-01-06T02:17:49;5.83;;;5.20;;
8151;SDS011;4117;53.622;9.958;2024-01-06T02:20:16;6.77;;;5.10;;
8151;SDS011;4117;53.622;9.958;2024-01-06T02:22:46;5.60;;;4.90;;
8151;SDS011;4117;53.622;9.958;2024-01-06T02:25:13;6.43;;;5.13;;
8151;SDS011;4117;53.622;9.958;2024-01-06T02:27:40;6.27;;;5.27;;
8151;SDS011;4117;53.622;9.958;2024-01-06T02:30:07;7.47;;;5.70;;
8151;SDS011;4117;53.622;9.958;2024-01-06T02:32:35;6.07;;;5.33;;
8151;SDS011;4117;53.622;9.958;2024-01-06T02:35:02;6.53;;;5.50;;
8151;SDS011;4117;53.622;9.958;2024-01-06T02:37:29;6.90;;;5.27;;
8151;SDS011;4117;53.622;9.958;2024-01-06T02:39:57;6.83;;;5.60;;
8151;SDS011;4117;53.622;9.958;2024-01-06T02:42:24;7.17;;;5.83;;
8151;SDS011;4117;53.622;9.958;2024-01-06T02:44:51;7.17;;;5.43;;
8151;SDS011;4117;53.622;9.958;2024-01-06T02:47:18;8.03;;;5.67;;
8151;SDS011;4117;53.622;9.958;2024-01-06T02:49:45;5.40;;;4.80;;
8151;SDS011;4117;53.622;9.958;2024-01-06T02:52:12;9.27;;;6.40;;
8151;SDS011;4117;53.622;9.958;2024-01-06T02:54:39;6.80;;;5.80;;
8151;SDS011;4117;53.622;9.958;2024-01-06T02:57:08;6.77;;;5.63;;
8151;SDS011;4117;53.622;9.958;2024-01-06T02:59:38;7.70;;;6.07;;
8151;SDS011;4117;53.622;9.958;2024-01-06T03:04:38;7.17;;;6.17;;
8151;SDS011;4117;53.622;9.958;2024-01-06T03:07:05;7.00;;;6.10;;
8151;SDS011;4117;53.622;9.958;2024-01-06T03:09:32;9.57;;;6.63;;
8151;SDS011;4117;53.622;9.958;2024-01-06T03:11:59;8.83;;;6.63;;
8151;SDS011;4117;53.622;9.958;2024-01-06T03:14:27;7.43;;;6.50;;
8151;SDS011;4117;53.622;9.958;2024-01-06T03:16:54;7.40;;;6.10;;
8151;SDS011;4117;53.622;9.958;2024-01-06T03:19:22;8.17;;;6.00;;
8151;SDS011;4117;53.622;9.958;2024-01-06T03:21:51;8.20;;;6.20;;
8151;SDS011;4117;53.622;9.958;2024-01-06T03:24:18;7.77;;;6.27;;
8151;SDS011;4117;53.622;9.958;2024-01-06T03:26:45;8.20;;;6.47;;
8151;SDS011;4117;53.622;9.958;2024-01-06T03:29:12;8.23;;;6.07;;
8151;SDS011;4117;53.622;9.958;2024-01-06T03:31:42;8.17;;;6.27;;
8151;SDS011;4117;53.622;9.958;2024-01-06T03:34:09;7.93;;;6.30;;
8151;SDS011;4117;53.622;9.958;2024-01-06T03:36:36;7.57;;;6.23;;
8151;SDS011;4117;53.622;9.958;2024-01-06T03:39:03;7.63;;;6.00;;
8151;SDS011;4117;53.622;9.958;2024-01-06T03:41:31;7.40;;;6.40;;
8151;SDS011;4117;53.622;9.958;2024-01-06T03:43:58;9.03;;;7.00;;
8151;SDS011;4117;53.622;9.958;2024-01-06T03:46:25;9.03;;;6.57;;
8151;SDS011;4117;53.622;9.958;2024-01-06T03:48:55;8.47;;;6.67;;
8151;SDS011;4117;53.622;9.958;2024-01-06T03:51:25;8.73;;;6.17;;
8151;SDS011;4117;53.622;9.958;2024-01-06T03:53:52;8.33;;;6.57;;
8151;SDS011;4117;53.622;9.958;2024-01-06T03:56:19;7.60;;;6.00;;
8151;SDS011;4117;53.622;9.958;2024-01-06T03:58:46;7.70;;;6.20;;
8151;SDS011;4117;53.622;9.958;2024-01-06T04:01:13;6.77;;;5.83;;
8151;SDS011;4117;53.622;9.958;2024-01-06T04:03:40;7.20;;;6.10;;
8151;SDS011;4117;53.622;9.958;2024-01-06T04:06:08;7.90;;;6.20;;
8151;SDS011;4117;53.622;9.958;2024-01-06T04:08:36;7.50;;;6.10;;
8151;SDS011;4117;53.622;9.958;2024-01-06T04:11:03;8.10;;;5.90;;
8151;SDS011;4117;53.622;9.958;2024-01-06T04:13:30;8.53;;;6.50;;
8151;SDS011;4117;53.622;9.958;2024-01-06T04:15:56;6.60;;;5.53;;
8151;SDS011;4117;53.622;9.958;2024-01-06T04:18:23;7.87;;;6.33;;
8151;SDS011;4117;53.622;9.958;2024-01-06T04:20:50;7.40;;;5.80;;
8151;SDS011;4117;53.622;9.958;2024-01-06T04:23:19;8.17;;;6.13;;
8151;SDS011;4117;53.622;9.958;2024-01-06T04:25:46;6.93;;;5.70;;
8151;SDS011;4117;53.622;9.958;2024-01-06T04:28:12;6.00;;;5.13;;
8151;SDS011;4117;53.622;9.958;2024-01-06T04:30:39;6.60;;;5.90;;
8151;SDS011;4117;53.622;9.958;2024-01-06T04:33:06;7.17;;;5.87;;
8151;SDS011;4117;53.622;9.958;2024-01-06T04:35:34;6.63;;;5.60;;
8151;SDS011;4117;53.622;9.958;2024-01-06T04:38:01;7.57;;;5.80;;
8151;SDS011;4117;53.622;9.958;2024-01-06T04:40:29;9.03;;;6.00;;
8151;SDS011;4117;53.622;9.958;2024-01-06T04:42:56;7.03;;;5.50;;
8151;SDS011;4117;53.622;9.958;2024-01-06T04:45:23;7.60;;;5.77;;
8151;SDS011;4117;53.622;9.958;2024-01-06T04:47:50;6.33;;;5.60;;
8151;SDS011;4117;53.622;9.958;2024-01-06T04:50:17;7.60;;;5.60;;
8151;SDS011;4117;53.622;9.958;2024-01-06T04:52:44;8.23;;;6.13;;
8151;SDS011;4117;53.622;9.958;2024-01-06T04:55:11;9.03;;;6.40;;
8151;SDS011;4117;53.622;9.958;2024-01-06T04:57:39;7.57;;;6.03;;
8151;SDS011;4117;53.622;9.958;2024-01-06T05:00:07;6.73;;;4.97;;
8151;SDS011;4117;53.622;9.958;2024-01-06T05:02:35;6.87;;;6.10;;
8151;SDS011;4117;53.622;9.958;2024-01-06T05:05:02;7.73;;;6.20;;
8151;SDS011;4117;53.622;9.958;2024-01-06T05:07:30;8.73;;;6.50;;
8151;SDS011;4117;53.622;9.958;2024-01-06T05:09:57;7.23;;;5.87;;
8151;SDS011;4117;53.622;9.958;2024-01-06T05:12:24;7.70;;;6.23;;
8151;SDS011;4117;53.622;9.958;2024-01-06T05:14:52;7.40;;;6.20;;
8151;SDS011;4117;53.622;9.958;2024-01-06T05:17:19;7.37;;;6.20;;
8151;SDS011;4117;53.622;9.958;2024-01-06T05:19:46;8.20;;;6.70;;
8151;SDS011;4117;53.622;9.958;2024-01-06T05:22:13;7.53;;;5.97;;
8151;SDS011;4117;53.622;9.958;2024-01-06T05:24:40;8.13;;;6.60;;
8151;SDS011;4117;53.622;9.958;2024-01-06T05:27:07;8.43;;;6.70;;
8151;SDS011;4117;53.622;9.958;2024-01-06T05:29:34;7.30;;;6.50;;
8151;SDS011;4117;53.622;9.958;2024-01-06T05:32:02;7.90;;;6.27;;
8151;SDS011;4117;53.622;9.958;2024-01-06T05:34:29;7.93;;;6.83;;
8151;SDS011;4117;53.622;9.958;2024-01-06T05:36:56;8.80;;;6.33;;
8151;SDS011;4117;53.622;9.958;2024-01-06T05:39:23;7.57;;;6.30;;
8151;SDS011;4117;53.622;9.958;2024-01-06T05:41:50;7.80;;;6.13;;
8151;SDS011;4117;53.622;9.958;2024-01-06T05:44:17;8.40;;;6.00;;
8151;SDS011;4117;53.622;9.958;2024-01-06T05:46:44;7.93;;;6.50;;
8151;SDS011;4117;53.622;9.958;2024-01-06T05:49:12;8.27;;;7.07;;
8151;SDS011;4117;53.622;9.958;2024-01-06T05:51:43;8.30;;;6.90;;
8151;SDS011;4117;53.622;9.958;2024-01-06T05:54:11;8.90;;;6.80;;
8151;SDS011;4117;53.622;9.958;2024-01-06T05:56:38;8.50;;;6.70;;
8151;SDS011;4117;53.622;9.958;2024-01-06T05:59:05;8.87;;;7.20;;
8151;SDS011;4117;53.622;9.958;2024-01-06T06:01:32;8.47;;;6.90;;
8151;SDS011;4117;53.622;9.958;2024-01-06T06:03:59;11.70;;;7.27;;
8151;SDS011;4117;53.622;9.958;2024-01-06T06:06:27;6.20;;;4.47;;
8151;SDS011;4117;53.622;9.958;2024-01-06T06:08:54;8.90;;;6.77;;
8151;SDS011;4117;53.622;9.958;2024-01-06T06:11:21;8.90;;;7.03;;
8151;SDS011;4117;53.622;9.958;2024-01-06T06:13:48;9.07;;;6.73;;
8151;SDS011;4117;53.622;9.958;2024-01-06T06:16:15;9.33;;;7.27;;
8151;SDS011;4117;53.622;9.958;2024-01-06T06:18:42;9.83;;;7.00;;
8151;SDS011;4117;53.622;9.958;2024-01-06T06:21:08;9.77;;;6.80;;
8151;SDS011;4117;53.622;9.958;2024-01-06T06:23:37;8.77;;;7.37;;
8151;SDS011;4117;53.622;9.958;2024-01-06T06:26:04;9.87;;;7.63;;
8151;SDS011;4117;53.622;9.958;2024-01-06T06:28:31;12.20;;;7.53;;
8151;SDS011;4117;53.622;9.958;2024-01-06T06:30:59;9.33;;;7.10;;
8151;SDS011;4117;53.622;9.958;2024-01-06T06:33:26;8.97;;;6.60;;
8151;SDS011;4117;53.622;9.958;2024-01-06T06:35:53;11.93;;;7.77;;
8151;SDS011;4117;53.622;9.958;2024-01-06T06:38:20;8.80;;;7.00;;
8151;SDS011;4117;53.622;9.958;2024-01-06T06:40:48;9.60;;;7.30;;
8151;SDS011;4117;53.622;9.958;2024-01-06T06:43:15;9.70;;;7.63;;
8151;SDS011;4117;53.622;9.958;2024-01-06T06:45:42;8.93;;;7.20;;
8151;SDS011;4117;53.622;9.958;2024-01-06T06:48:09;10.07;;;7.50;;
8151;SDS011;4117;53.622;9.958;2024-01-06T06:50:36;10.57;;;7.83;;
8151;SDS011;4117;53.622;9.958;2024-01-06T06:53:03;10.30;;;7.03;;
8151;SDS011;4117;53.622;9.958;2024-01-06T06:55:30;9.50;;;6.70;;
8151;SDS011;4117;53.622;9.958;2024-01-06T06:57:59;10.37;;;7.23;;
8151;SDS011;4117;53.622;9.958;2024-01-06T07:00:26;9.10;;;7.13;;
8151;SDS011;4117;53.622;9.958;2024-01-06T07:02:53;9.30;;;7.10;;
8151;SDS011;4117;53.622;9.958;2024-01-06T07:05:19;10.57;;;7.53;;
8151;SDS011;4117;53.622;9.958;2024-01-06T07:07:47;8.63;;;7.10;;
8151;SDS011;4117;53.622;9.958;2024-01-06T07:10:14;11.10;;;6.90;;
8151;SDS011;4117;53.622;9.958;2024-01-06T07:12:42;10.07;;;7.17;;
8151;SDS011;4117;53.622;9.958;2024-01-06T07:15:11;9.07;;;6.70;;
8151;SDS011;4117;53.622;9.958;2024-01-06T07:17:38;9.50;;;7.00;;
8151;SDS011;4117;53.622;9.958;2024-01-06T07:20:05;11.77;;;7.40;;
8151;SDS011;4117;53.622;9.958;2024-01-06T07:22:34;10.63;;;7.67;;
8151;SDS011;4117;53.622;9.958;2024-01-06T07:25:02;9.93;;;7.13;;
8151;SDS011;4117;53.622;9.958;2024-01-06T07:27:29;9.53;;;6.63;;
8151;SDS011;4117;53.622;9.958;2024-01-06T07:29:56;9.40;;;7.30;;
8151;SDS011;4117;53.622;9.958;2024-01-06T07:32:24;9.63;;;7.83;;
8151;SDS011;4117;53.622;9.958;2024-01-06T07:34:51;9.77;;;7.80;;
8151;SDS011;4117;53.622;9.958;2024-01-06T07:37:18;8.87;;;7.30;;
8151;SDS011;4117;53.622;9.958;2024-01-06T07:39:45;10.57;;;7.27;;
8151;SDS011;4117;53.622;9.958;2024-01-06T07:42:12;9.77;;;6.93;;
8151;SDS011;4117;53.622;9.958;2024-01-06T07:44:39;9.03;;;6.77;;
8151;SDS011;4117;53.622;9.958;2024-01-06T07:47:07;9.37;;;7.17;;
8151;SDS011;4117;53.622;9.958;2024-01-06T07:49:35;10.73;;;7.70;;
8151;SDS011;4117;53.622;9.958;2024-01-06T07:52:02;11.60;;;7.40;;
8151;SDS011;4117;53.622;9.958;2024-01-06T07:54:30;8.23;;;6.83;;
8151;SDS011;4117;53.622;9.958;2024-01-06T07:56:57;10.53;;;7.40;;
8151;SDS011;4117;53.622;9.958;2024-01-06T07:59:24;9.83;;;7.63;;
8151;SDS011;4117;53.622;9.958;2024-01-06T08:01:51;11.70;;;8.37;;
8151;SDS011;4117;53.622;9.958;2024-01-06T08:04:18;12.60;;;9.00;;
8151;SDS011;4117;53.622;9.958;2024-01-06T08:06:46;10.73;;;8.10;;
8151;SDS011;4117;53.622;9.958;2024-01-06T08:09:13;12.20;;;7.07;;
8151;SDS011;4117;53.622;9.958;2024-01-06T08:11:40;12.63;;;7.17;;
8151;SDS011;4117;53.622;9.958;2024-01-06T08:14:07;8.43;;;6.63;;
8151;SDS011;4117;53.622;9.958;2024-01-06T08:16:36;9.00;;;6.53;;
8151;SDS011;4117;53.622;9.958;2024-01-06T08:19:02;10.70;;;6.70;;
8151;SDS011;4117;53.622;9.958;2024-01-06T08:21:29;8.37;;;6.60;;
8151;SDS011;4117;53.622;9.958;2024-01-06T08:23:58;9.73;;;6.70;;
8151;SDS011;4117;53.622;9.958;2024-01-06T08:26:25;8.57;;;6.40;;
8151;SDS011;4117;53.622;9.958;2024-01-06T08:28:52;9.03;;;6.90;;
8151;SDS011;4117;53.622;9.958;2024-01-06T08:31:19;9.20;;;6.87;;
8151;SDS011;4117;53.622;9.958;2024-01-06T08:33:48;9.27;;;6.90;;
8151;SDS011;4117;53.622;9.958;2024-01-06T08:36:15;10.13;;;7.13;;
8151;SDS011;4117;53.622;9.958;2024-01-06T08:38:42;7.50;;;6.70;;
8151;SDS011;4117;53.622;9.958;2024-01-06T08:41:11;9.43;;;7.30;;
8151;SDS011;4117;53.622;9.958;2024-01-06T08:43:37;10.43;;;6.73;;
8151;SDS011;4117;53.622;9.958;2024-01-06T08:46:04;8.23;;;5.67;;
8151;SDS011;4117;53.622;9.958;2024-01-06T08:48:31;11.53;;;6.87;;
8151;SDS011;4117;53.622;9.958;2024-01-06T08:51:01;9.33;;;6.63;;
8151;SDS011;4117;53.622;9.958;2024-01-06T08:53:28;9.93;;;7.43;;
8151;SDS011;4117;53.622;9.958;2024-01-06T08:55:55;8.60;;;6.87;;
8151;SDS011;4117;53.622;9.958;2024-01-06T08:58:23;9.30;;;6.53;;
8151;SDS011;4117;53.622;9.958;2024-01-06T09:00:50;8.23;;;6.53;;
8151;SDS011;4117;53.622;9.958;2024-01-06T09:03:18;10.03;;;6.90;;
8151;SDS011;4117;53.622;9.958;2024-01-06T09:05:50;11.70;;;7.70;;
8151;SDS011;4117;53.622;9.958;2024-01-06T09:08:17;8.57;;;7.00;;
8151;SDS011;4117;53.622;9.958;2024-01-06T09:10:44;9.87;;;6.87;;
8151;SDS011;4117;53.622;9.958;2024-01-06T09:13:11;10.37;;;7.23;;
8151;SDS011;4117;53.622;9.958;2024-01-06T09:15:39;8.90;;;6.90;;
8151;SDS011;4117;53.622;9.958;2024-01-06T09:18:06;10.33;;;7.47;;
8151;SDS011;4117;53.622;9.958;2024-01-06T09:20:33;10.33;;;7.07;;
8151;SDS011;4117;53.622;9.958;2024-01-06T09:23:00;10.57;;;7.27;;
8151;SDS011;4117;53.622;9.958;2024-01-06T09:25:26;9.53;;;7.00;;
8151;SDS011;4117;53.622;9.958;2024-01-06T09:27:53;8.90;;;7.03;;
8151;SDS011;4117;53.622;9.958;2024-01-06T09:30:20;10.30;;;7.33;;
8151;SDS011;4117;53.622;9.958;2024-01-06T09:32:49;11.30;;;7.40;;
8151;SDS011;4117;53.622;9.958;2024-01-06T09:35:16;12.00;;;8.13;;
8151;SDS011;4117;53.622;9.958;2024-01-06T09:37:43;10.33;;;7.83;;
8151;SDS011;4117;53.622;9.958;2024-01-06T09:40:11;11.33;;;7.60;;
8151;SDS011;4117;53.622;9.958;2024-01-06T09:42:39;11.60;;;8.40;;
8151;SDS011;4117;53.622;9.958;2024-01-06T09:45:07;8.70;;;7.07;;
8151;SDS011;4117;53.622;9.958;2024-01-06T09:47:34;11.67;;;8.83;;
8151;SDS011;4117;53.622;9.958;2024-01-06T09:50:04;10.00;;;7.60;;
8151;SDS011;4117;53.622;9.958;2024-01-06T09:52:37;10.40;;;7.93;;
8151;SDS011;4117;53.622;9.958;2024-01-06T09:55:08;10.37;;;8.23;;
8151;SDS011;4117;53.622;9.958;2024-01-06T09:57:37;10.47;;;7.27;;
8151;SDS011;4117;53.622;9.958;2024-01-06T10:00:05;10.40;;;7.70;;
8151;SDS011;4117;53.622;9.958;2024-01-06T10:02:34;10.60;;;7.50;;
8151;SDS011;4117;53.622;9.958;2024-01-06T10:05:01;10.77;;;7.73;;
8151;SDS011;4117;53.622;9.958;2024-01-06T10:07:30;9.13;;;7.03;;
8151;SDS011;4117;53.622;9.958;2024-01-06T10:09:57;10.27;;;7.43;;
8151;SDS011;4117;53.622;9.958;2024-01-06T10:12:24;11.00;;;7.70;;
8151;SDS011;4117;53.622;9.958;2024-01-06T10:14:53;11.47;;;8.70;;
8151;SDS011;4117;53.622;9.958;2024-01-06T10:17:20;12.57;;;10.00;;
8151;SDS011;4117;53.622;9.958;2024-01-06T10:19:47;11.90;;;9.60;;
8151;SDS011;4117;53.622;9.958;2024-01-06T10:22:14;11.80;;;8.90;;
8151;SDS011;4117;53.622;9.958;2024-01-06T10:24:43;12.73;;;8.60;;
8151;SDS011;4117;53.622;9.958;2024-01-06T10:27:10;12.10;;;9.13;;
8151;SDS011;4117;53.622;9.958;2024-01-06T10:29:37;9.77;;;7.63;;
8151;SDS011;4117;53.622;9.958;2024-01-06T10:32:04;12.03;;;9.57;;
8151;SDS011;4117;53.622;9.958;2024-01-06T10:34:32;10.20;;;7.97;;
8151;SDS011;4117;53.622;9.958;2024-01-06T10:36:59;11.73;;;8.07;;
8151;SDS011;4117;53.622;9.958;2024-01-06T10:39:26;11.07;;;7.20;;
8151;SDS011;4117;53.622;9.958;2024-01-06T10:41:56;10.03;;;7.97;;
8151;SDS011;4117;53.622;9.958;2024-01-06T10:44:23;9.97;;;6.90;;
8151;SDS011;4117;53.622;9.958;2024-01-06T10:46:51;13.03;;;8.57;;
8151;SDS011;4117;53.622;9.958;2024-01-06T10:49:19;11.17;;;8.53;;
8151;SDS011;4117;53.622;9.958;2024-01-06T10:51:48;13.40;;;7.40;;
8151;SDS011;4117;53.622;9.958;2024-01-06T10:54:16;8.30;;;6.97;;
8151;SDS011;4117;53.622;9.958;2024-01-06T10:56:45;9.03;;;6.40;;
8151;SDS011;4117;53.622;9.958;2024-01-06T10:59:13;10.70;;;7.33;;
8151;SDS011;4117;53.622;9.958;2024-01-06T11:01:41;11.47;;;7.33;;
8151;SDS011;4117;53.622;9.958;2024-01-06T11:04:08;10.83;;;8.00;;
8151;SDS011;4117;53.622;9.958;2024-01-06T11:06:35;9.20;;;6.23;;
8151;SDS011;4117;53.622;9.958;2024-01-06T11:09:04;8.80;;;6.03;;
8151;SDS011;4117;53.622;9.958;2024-01-06T11:11:35;9.27;;;6.67;;
8151;SDS011;4117;53.622;9.958;2024-01-06T11:14:18;7.50;;;5.80;;
8151;SDS011;4117;53.622;9.958;2024-01-06T11:16:48;7.67;;;6.03;;
8151;SDS011;4117;53.622;9.958;2024-01-06T11:22:20;8.73;;;5.83;;
8151;SDS011;4117;53.622;9.958;2024-01-06T11:24:52;10.13;;;6.33;;
8151;SDS011;4117;53.622;9.958;2024-01-06T11:27:22;8.90;;;6.23;;
8151;SDS011;4117;53.622;9.958;2024-01-06T11:29:53;7.00;;;4.80;;
8151;SDS011;4117;53.622;9.958;2024-01-06T11:32:20;8.50;;;5.77;;
8151;SDS011;4117;53.622;9.958;2024-01-06T11:34:53;7.67;;;5.87;;
8151;SDS011;4117;53.622;9.958;2024-01-06T11:37:25;9.47;;;5.67;;
8151;SDS011;4117;53.622;9.958;2024-01-06T11:40:01;6.77;;;5.53;;
8151;SDS011;4117;53.622;9.958;2024-01-06T11:42:31;7.23;;;5.70;;
8151;SDS011;4117;53.622;9.958;2024-01-06T11:45:02;9.30;;;5.23;;
8151;SDS011;4117;53.622;9.958;2024-01-06T11:47:31;8.00;;;5.43;;
8151;SDS011;4117;53.622;9.958;2024-01-06T11:49:59;7.90;;;6.17;;
8151;SDS011;4117;53.622;9.958;2024-01-06T11:52:29;8.17;;;5.67;;
8151;SDS011;4117;53.622;9.958;2024-01-06T11:54:56;7.17;;;5.50;;
8151;SDS011;4117;53.622;9.958;2024-01-06T11:57:25;7.13;;;5.37;;
8151;SDS011;4117;53.622;9.958;2024-01-06T11:59:52;7.60;;;5.90;;
8151;SDS011;4117;53.622;9.958;2024-01-06T12:02:21;7.97;;;5.67;;
8151;SDS011;4117;53.622;9.958;2024-01-06T12:04:49;8.20;;;5.90;;
8151;SDS011;4117;53.622;9.958;2024-01-06T12:07:16;8.57;;;6.23;;
8151;SDS011;4117;53.622;9.958;2024-01-06T12:09:43;10.37;;;6.60;;
8151;SDS011;4117;53.622;9.958;2024-01-06T12:12:10;6.27;;;4.83;;
8151;SDS011;4117;53.622;9.958;2024-01-06T12:14:39;6.77;;;4.77;;
8151;SDS011;4117;53.622;9.958;2024-01-06T12:17:07;5.77;;;4.87;;
8151;SDS011;4117;53.622;9.958;2024-01-06T12:19:36;7.40;;;5.90;;
8151;SDS011;4117;53.622;9.958;2024-01-06T12:22:04;9.67;;;6.10;;
8151;SDS011;4117;53.622;9.958;2024-01-06T12:24:31;8.83;;;5.80;;
8151;SDS011;4117;53.622;9.958;2024-01-06T12:26:58;6.87;;;4.93;;
8151;SDS011;4117;53.622;9.958;2024-01-06T12:29:26;6.23;;;4.57;;
8151;SDS011;4117;53.622;9.958;2024-01-06T12:31:54;6.10;;;4.50;;
8151;SDS011;4117;53.622;9.958;2024-01-06T12:34:21;6.17;;;4.53;;
8151;SDS011;4117;53.622;9.958;2024-01-06T12:36:52;7.90;;;5.20;;
8151;SDS011;4117;53.622;9.958;2024-01-06T12:39:21;6.23;;;4.93;;
8151;SDS011;4117;53.622;9.958;2024-01-06T12:41:50;7.40;;;5.10;;
8151;SDS011;4117;53.622;9.958;2024-01-06T12:44:17;10.47;;;5.03;;
8151;SDS011;4117;53.622;9.958;2024-01-06T12:46:44;5.60;;;4.97;;
8151;SDS011;4117;53.622;9.958;2024-01-06T12:49:11;7.60;;;5.00;;
8151;SDS011;4117;53.622;9.958;2024-01-06T12:51:38;6.37;;;4.67;;
8151;SDS011;4117;53.622;9.958;2024-01-06T12:54:06;5.00;;;4.40;;
8151;SDS011;4117;53.622;9.958;2024-01-06T12:56:33;5.97;;;4.60;;
8151;SDS011;4117;53.622;9.958;2024-01-06T12:59:01;5.93;;;4.60;;
8151;SDS011;4117;53.622;9.958;2024-01-06T13:01:28;7.20;;;4.90;;
8151;SDS011;4117;53.622;9.958;2024-01-06T13:03:55;6.20;;;4.73;;
8151;SDS011;4117;53.622;9.958;2024-01-06T13:06:25;5.63;;;4.50;;
8151;SDS011;4117;53.622;9.958;2024-01-06T13:08:52;6.90;;;5.37;;
8151;SDS011;4117;53.622;9.958;2024-01-06T13:11:21;7.47;;;6.10;;
8151;SDS011;4117;53.622;9.958;2024-01-06T13:13:49;7.63;;;5.33;;
8151;SDS011;4117;53.622;9.958;2024-01-06T13:16:16;6.90;;;5.07;;
8151;SDS011;4117;53.622;9.958;2024-01-06T13:18:43;5.60;;;4.70;;
8151;SDS011;4117;53.622;9.958;2024-01-06T13:21:10;5.27;;;4.40;;
8151;SDS011;4117;53.622;9.958;2024-01-06T13:23:37;5.47;;;4.50;;
8151;SDS011;4117;53.622;9.958;2024-01-06T13:26:04;7.20;;;4.37;;
8151;SDS011;4117;53.622;9.958;2024-01-06T13:28:32;5.10;;;4.27;;
8151;SDS011;4117;53.622;9.958;2024-01-06T13:30:59;5.90;;;4.33;;
8151;SDS011;4117;53.622;9.958;2024-01-06T13:33:27;5.30;;;4.00;;
8151;SDS011;4117;53.622;9.958;2024-01-06T13:35:55;6.57;;;4.20;;
8151;SDS011;4117;53.622;9.958;2024-01-06T13:38:22;7.90;;;4.27;;
8151;SDS011;4117;53.622;9.958;2024-01-06T13:40:51;5.00;;;3.70;;
8151;SDS011;4117;53.622;9.958;2024-01-06T13:43:18;6.47;;;3.70;;
8151;SDS011;4117;53.622;9.958;2024-01-06T13:45:47;5.33;;;4.07;;
8151;SDS011;4117;53.622;9.958;2024-01-06T13:48:14;4.63;;;3.90;;
8151;SDS011;4117;53.622;9.958;2024-01-06T13:50:41;4.70;;;3.70;;
8151;SDS011;4117;53.622;9.958;2024-01-06T13:53:08;6.00;;;3.67;;
8151;SDS011;4117;53.622;9.958;2024-01-06T13:55:35;5.53;;;3.80;;
8151;SDS011;4117;53.622;9.958;2024-01-06T13:58:02;5.43;;;3.83;;
8151;SDS011;4117;53.622;9.958;2024-01-06T14:00:30;5.20;;;3.70;;
8151;SDS011;4117;53.622;9.958;2024-01-06T14:02:58;5.97;;;3.43;;
8151;SDS011;4117;53.622;9.958;2024-01-06T14:05:25;4.50;;;4.00;;
8151;SDS011;4117;53.622;9.958;2024-01-06T14:07:52;6.50;;;4.13;;
8151;SDS011;4117;53.622;9.958;2024-01-06T14:10:20;5.53;;;4.00;;
8151;SDS011;4117;53.622;9.958;2024-01-06T14:12:47;5.03;;;4.20;;
8151;SDS011;4117;53.622;9.958;2024-01-06T14:15:14;5.40;;;4.40;;
8151;SDS011;4117;53.622;9.958;2024-01-06T14:17:41;6.03;;;4.13;;
8151;SDS011;4117;53.622;9.958;2024-01-06T14:20:15;5.87;;;4.37;;
8151;SDS011;4117;53.622;9.958;2024-01-06T14:22:43;5.33;;;3.93;;
8151;SDS011;4117;53.622;9.958;2024-01-06T14:25:11;5.93;;;3.83;;
8151;SDS011;4117;53.622;9.958;2024-01-06T14:27:38;6.80;;;4.27;;
8151;SDS011;4117;53.622;9.958;2024-01-06T14:30:06;6.60;;;3.80;;
8151;SDS011;4117;53.622;9.958;2024-01-06T14:32:34;4.27;;;3.87;;
8151;SDS011;4117;53.622;9.958;2024-01-06T14:35:01;5.93;;;3.90;;
8151;SDS011;4117;53.622;9.958;2024-01-06T14:37:30;7.87;;;4.53;;
8151;SDS011;4117;53.622;9.958;2024-01-06T14:39:57;5.17;;;4.27;;
8151;SDS011;4117;53.622;9.958;2024-01-06T14:42:29;5.97;;;4.53;;
8151;SDS011;4117;53.622;9.958;2024-01-06T14:44:56;5.97;;;4.00;;
8151;SDS011;4117;53.622;9.958;2024-01-06T14:47:23;5.53;;;4.43;;
8151;SDS011;4117;53.622;9.958;2024-01-06T14:49:51;5.97;;;4.50;;
8151;SDS011;4117;53.622;9.958;2024-01-06T14:52:17;7.07;;;4.90;;
8151;SDS011;4117;53.622;9.958;2024-01-06T14:54:46;6.20;;;4.77;;
8151;SDS011;4117;53.622;9.958;2024-01-06T14:57:14;7.07;;;5.13;;
8151;SDS011;4117;53.622;9.958;2024-01-06T14:59:41;6.80;;;4.77;;
8151;SDS011;4117;53.622;9.958;2024-01-06T15:02:08;7.07;;;4.90;;
8151;SDS011;4117;53.622;9.958;2024-01-06T15:04:36;6.70;;;4.87;;
8151;SDS011;4117;53.622;9.958;2024-01-06T15:07:04;6.40;;;4.40;;
8151;SDS011;4117;53.622;9.958;2024-01-06T15:09:31;6.90;;;5.10;;
8151;SDS011;4117;53.622;9.958;2024-01-06T15:11:59;5.90;;;4.70;;
8151;SDS011;4117;53.622;9.958;2024-01-06T15:14:26;6.57;;;4.77;;
8151;SDS011;4117;53.622;9.958;2024-01-06T15:16:53;5.87;;;4.93;;
8151;SDS011;4117;53.622;9.958;2024-01-06T15:19:20;7.33;;;5.80;;